Time;durP1;ratioP1;P1;durP2;ratioP2;P2;SDS_P1;SDS_P2;PMS_P1;PMS_P2;Temp;Humidity;BMP_temperature;BMP_pressure;BME280_temperature;BME280_humidity;BME280_pressure;Samples;Min_cycle;Max_cycle;Signal;HPM_P1;HPM_P2
2024/04/18 00:01:27;;;;;;;19.20;11.90;;;;;;;;;;103502;1291;545201;-69
2024/04/18 00:05:04;;;;;;;17.60;11.30;;;;;;;;;;103547;1290;544921;-68
2024/04/18 00:08:42;;;;;;;21.50;11.60;;;;;;;;;;103546;1292;545065;-68
2024/04/18 00:12:19;;;;;;;16.30;10.10;;;;;;;;;;103701;1292;545076;-69
2024/04/18 00:15:57;;;;;;;15.00;9.70;;;;;;;;;;103572;1289;545825;-68
2024/04/18 00:19:34;;;;;;;18.90;11.10;;;;;;;;;;103499;1292;545687;-69
2024/04/18 00:23:12;;;;;;;16.00;9.20;;;;;;;;;;103550;1292;545559;-67
2024/04/18 00:26:48;;;;;;;16.30;8.30;;;;;;;;;;103692;1291;545012;-70
2024/04/18 00:30:27;;;;;;;13.20;7.70;;;;;;;;;;103555;1298;545749;-69
2024/04/18 00:34:04;;;;;;;17.30;8.90;;;;;;;;;;103523;1289;545899;-68
2024/04/18 00:37:41;;;;;;;17.90;11.00;;;;;;;;;;103534;1291;545413;-68
2024/04/18 00:41:19;;;;;;;21.60;11.90;;;;;;;;;;103596;1291;545249;-68
2024/04/18 00:44:56;;;;;;;19.00;11.00;;;;;;;;;;103512;1292;545766;-68
2024/04/18 00:48:34;;;;;;;19.80;10.50;;;;;;;;;;103492;1291;545128;-69
2024/04/18 00:52:18;;;;;;;21.00;11.70;;;;;;;;;;103936;1289;544891;-68
2024/04/18 00:55:49;;;;;;;21.80;12.10;;;;;;;;;;103869;1289;547331;-69
2024/04/18 00:59:27;;;;;;;19.80;11.50;;;;;;;;;;103518;1291;545958;-69
2024/04/18 01:03:03;;;;;;;25.70;13.70;;;;;;;;;;103507;1292;545951;-68
2024/04/18 01:06:41;;;;;;;23.80;12.60;;;;;;;;;;104418;1283;544812;-67
2024/04/18 01:10:19;;;;;;;18.20;11.50;;;;;;;;;;103492;1294;545026;-68
2024/04/18 01:13:56;;;;;;;19.10;10.80;;;;;;;;;;103602;1292;545000;-68
2024/04/18 01:17:34;;;;;;;17.40;10.60;;;;;;;;;;103705;1289;545740;-69
2024/04/18 01:21:11;;;;;;;25.90;14.60;;;;;;;;;;103465;1291;545529;-69
2024/04/18 01:24:48;;;;;;;61.80;34.20;;;;;;;;;;103619;1291;545379;-68
2024/04/18 01:28:25;;;;;;;23.90;15.50;;;;;;;;;;103575;1291;544982;-68
2024/04/18 01:32:06;;;;;;;18.10;11.40;;;;;;;;;;103590;1295;544900;-67
2024/04/18 01:35:41;;;;;;;15.30;9.10;;;;;;;;;;103557;1289;547105;-68
2024/04/18 01:39:20;;;;;;;13.10;7.50;;;;;;;;;;103534;1292;547045;-69
2024/04/18 01:42:56;;;;;;;10.40;5.50;;;;;;;;;;103618;1290;545218;-70
2024/04/18 01:46:33;;;;;;;10.60;6.20;;;;;;;;;;103490;1291;544998;-69
2024/04/18 01:50:07;;;;;;;12.20;6.60;;;;;;;;;;103687;1289;545209;-69
2024/04/18 01:53:48;;;;;;;9.80;6.30;;;;;;;;;;103519;1294;545905;-71
2024/04/18 01:57:26;;;;;;;10.80;5.90;;;;;;;;;;103581;1292;545045;-68
2024/04/18 02:01:03;;;;;;;10.50;6.20;;;;;;;;;;103395;1291;545138;-67
2024/04/18 02:04:41;;;;;;;10.10;6.30;;;;;;;;;;103611;1291;545093;-67
2024/04/18 02:08:18;;;;;;;10.80;6.80;;;;;;;;;;103551;1289;544828;-67
2024/04/18 02:11:56;;;;;;;9.90;6.40;;;;;;;;;;103542;1295;545164;-67
2024/04/18 02:15:33;;;;;;;13.50;7.70;;;;;;;;;;103515;1292;544758;-68
2024/04/18 02:19:11;;;;;;;10.60;5.70;;;;;;;;;;103559;1290;545724;-70
2024/04/18 02:22:48;;;;;;;10.80;5.00;;;;;;;;;;103516;1292;545000;-69
2024/04/18 02:26:26;;;;;;;9.10;4.40;;;;;;;;;;103932;1289;545058;-70
2024/04/18 02:30:07;;;;;;;11.00;5.70;;;;;;;;;;103485;1291;545668;-68
2024/04/18 02:33:41;;;;;;;9.70;5.30;;;;;;;;;;103398;1298;545547;-71
2024/04/18 02:37:18;;;;;;;10.70;5.80;;;;;;;;;;103439;1292;545830;-69
2024/04/18 02:41:00;;;;;;;9.30;5.00;;;;;;;;;;103320;1292;545076;-68
2024/04/18 02:44:33;;;;;;;9.70;5.00;;;;;;;;;;103537;1291;547895;-68
2024/04/18 02:48:14;;;;;;;11.20;5.30;;;;;;;;;;103490;1297;544981;-68
2024/04/18 02:51:48;;;;;;;10.50;5.50;;;;;;;;;;103622;1292;544970;-70
2024/04/18 02:55:26;;;;;;;10.20;4.80;;;;;;;;;;103667;1292;545480;-70
2024/04/18 02:59:03;;;;;;;9.00;4.50;;;;;;;;;;103895;1289;545644;-70
2024/04/18 03:02:41;;;;;;;8.90;4.90;;;;;;;;;;103588;1289;544754;-68
2024/04/18 03:06:18;;;;;;;10.40;5.70;;;;;;;;;;103452;1291;544981;-69
2024/04/18 03:09:55;;;;;;;9.80;5.60;;;;;;;;;;103612;1289;544931;-71
2024/04/18 03:13:32;;;;;;;10.20;5.10;;;;;;;;;;103539;1291;545117;-69
2024/04/18 03:17:11;;;;;;;10.10;5.50;;;;;;;;;;103614;1304;545137;-69
2024/04/18 03:20:51;;;;;;;11.10;6.20;;;;;;;;;;103734;1288;545426;-69
2024/04/18 03:24:26;;;;;;;11.20;6.70;;;;;;;;;;103563;1292;545690;-69
2024/04/18 03:28:03;;;;;;;13.70;6.90;;;;;;;;;;103476;1291;545161;-70
2024/04/18 03:31:42;;;;;;;11.40;6.30;;;;;;;;;;103494;1291;545151;-68
2024/04/18 03:35:14;;;;;;;10.20;5.50;;;;;;;;;;103535;1295;545000;-69
2024/04/18 03:39:00;;;;;;;11.30;6.00;;;;;;;;;;103427;1292;546277;-69
2024/04/18 03:42:33;;;;;;;13.30;6.80;;;;;;;;;;103414;1291;545682;-67
2024/04/18 03:46:10;;;;;;;13.30;7.60;;;;;;;;;;103457;1292;547105;-68
2024/04/18 03:49:48;;;;;;;10.70;6.90;;;;;;;;;;103426;1291;544820;-67
2024/04/18 03:53:25;;;;;;;14.10;6.80;;;;;;;;;;103556;1291;544844;-69
2024/04/18 03:57:03;;;;;;;12.30;6.70;;;;;;;;;;103488;1294;544819;-69
2024/04/18 04:00:40;;;;;;;11.10;6.40;;;;;;;;;;103390;1294;544930;-69
2024/04/18 04:04:18;;;;;;;11.50;6.70;;;;;;;;;;103432;1292;545475;-69
2024/04/18 04:07:55;;;;;;;13.10;7.40;;;;;;;;;;103986;1285;544600;-68
2024/04/18 04:11:32;;;;;;;10.60;7.00;;;;;;;;;;103530;1292;544890;-68
2024/04/18 04:15:10;;;;;;;10.40;6.70;;;;;;;;;;103614;1291;546643;-69
2024/04/18 04:18:55;;;;;;;12.60;6.40;;;;;;;;;;103501;1304;546302;-67
2024/04/18 04:22:25;;;;;;;10.50;5.90;;;;;;;;;;104375;1283;545615;-68
2024/04/18 04:26:02;;;;;;;10.70;6.10;;;;;;;;;;103614;1289;545414;-68
2024/04/18 04:29:41;;;;;;;9.90;5.60;;;;;;;;;;103683;1289;545153;-67
2024/04/18 04:33:17;;;;;;;10.60;5.70;;;;;;;;;;103539;1289;546199;-68
2024/04/18 04:36:55;;;;;;;10.40;5.90;;;;;;;;;;103481;1291;545070;-67
2024/04/18 04:40:32;;;;;;;9.70;5.50;;;;;;;;;;103717;1301;544786;-68
2024/04/18 04:44:10;;;;;;;10.30;5.60;;;;;;;;;;103924;1286;544717;-71
2024/04/18 04:47:49;;;;;;;9.70;5.00;;;;;;;;;;103466;1291;545135;-72
2024/04/18 04:51:25;;;;;;;9.50;4.80;;;;;;;;;;103429;1292;545481;-71
2024/04/18 04:55:02;;;;;;;11.40;5.40;;;;;;;;;;103464;1292;545238;-70
2024/04/18 04:58:40;;;;;;;10.50;6.00;;;;;;;;;;103458;1291;545027;-68
2024/04/18 05:02:17;;;;;;;11.60;6.00;;;;;;;;;;103497;1295;545017;-68
2024/04/18 05:05:54;;;;;;;10.90;6.40;;;;;;;;;;103468;1291;547234;-67
2024/04/18 05:09:32;;;;;;;11.50;7.00;;;;;;;;;;103609;1294;545234;-68
2024/04/18 05:13:13;;;;;;;20.00;11.20;;;;;;;;;;103555;1291;545129;-68
2024/04/18 05:16:47;;;;;;;19.80;12.70;;;;;;;;;;103539;1291;545847;-67
2024/04/18 05:20:25;;;;;;;19.90;11.80;;;;;;;;;;103535;1291;545037;-69
2024/04/18 05:24:02;;;;;;;19.30;10.40;;;;;;;;;;103693;1292;545040;-67
2024/04/18 05:27:42;;;;;;;11.80;6.30;;;;;;;;;;103419;1292;545024;-65
2024/04/18 05:31:20;;;;;;;10.00;5.20;;;;;;;;;;103509;1290;545175;-68
2024/04/18 05:34:55;;;;;;;12.20;6.10;;;;;;;;;;103464;1291;545065;-68
2024/04/18 05:38:28;;;;;;;10.50;6.10;;;;;;;;;;104235;1283;545287;-69
2024/04/18 05:42:10;;;;;;;14.10;7.40;;;;;;;;;;103558;1302;545119;-67
2024/04/18 05:45:47;;;;;;;10.00;6.10;;;;;;;;;;103671;1289;544957;-70
2024/04/18 05:49:25;;;;;;;9.70;5.10;;;;;;;;;;103653;1290;547758;-68
2024/04/18 05:53:02;;;;;;;11.00;5.60;;;;;;;;;;103521;1298;545295;-69
2024/04/18 05:56:39;;;;;;;10.20;5.40;;;;;;;;;;103543;1292;544928;-69
2024/04/18 06:00:16;;;;;;;9.40;5.00;;;;;;;;;;103515;1291;546863;-69
2024/04/18 06:03:54;;;;;;;9.70;6.00;;;;;;;;;;103489;1294;545114;-69
2024/04/18 06:07:32;;;;;;;10.40;5.60;;;;;;;;;;103454;1289;545034;-69
2024/04/18 06:11:09;;;;;;;9.70;4.90;;;;;;;;;;103664;1289;544779;-68
2024/04/18 06:14:47;;;;;;;10.70;6.60;;;;;;;;;;103564;1291;544832;-67
2024/04/18 06:18:43;;;;;;;10.90;6.30;;;;;;;;;;103501;1302;545260;-74
2024/04/18 06:21:57;;;;;;;10.60;6.30;;;;;;;;;;103510;1291;545167;-69
2024/04/18 06:25:40;;;;;;;12.30;5.00;;;;;;;;;;103584;1291;545151;-68
2024/04/18 06:29:19;;;;;;;8.90;4.20;;;;;;;;;;103488;1290;545186;-69
2024/04/18 06:32:55;;;;;;;8.20;3.10;;;;;;;;;;103604;1292;545881;-68
2024/04/18 06:36:28;;;;;;;8.70;3.60;;;;;;;;;;103962;1284;546026;-68
2024/04/18 06:40:09;;;;;;;7.00;3.90;;;;;;;;;;103736;1288;545001;-69
2024/04/18 06:43:46;;;;;;;16.00;9.80;;;;;;;;;;103571;1303;545306;-68
2024/04/18 06:47:25;;;;;;;11.20;8.10;;;;;;;;;;103474;1292;546086;-68
2024/04/18 06:50:58;;;;;;;9.80;6.80;;;;;;;;;;103654;1289;545187;-68
2024/04/18 06:54:43;;;;;;;9.60;6.90;;;;;;;;;;103460;1291;545443;-68
2024/04/18 06:58:17;;;;;;;11.30;8.80;;;;;;;;;;103531;1292;546039;-69
2024/04/18 07:01:54;;;;;;;11.50;6.50;;;;;;;;;;103604;1291;545018;-68
2024/04/18 07:06:00;;;;;;;12.70;8.20;;;;;;;;;;103558;1296;545216;-69
2024/04/18 07:09:09;;;;;;;11.30;8.10;;;;;;;;;;103588;1292;545095;-69
2024/04/18 07:12:46;;;;;;;11.00;8.50;;;;;;;;;;103569;1291;545057;-68
2024/04/18 07:16:24;;;;;;;14.60;10.60;;;;;;;;;;103531;1289;545909;-68
2024/04/18 07:20:01;;;;;;;13.20;9.50;;;;;;;;;;103542;1293;546665;-67
2024/04/18 07:23:40;;;;;;;12.70;9.30;;;;;;;;;;103481;1291;546477;-67
2024/04/18 07:27:19;;;;;;;11.30;7.80;;;;;;;;;;103884;1289;545567;-69
2024/04/18 07:30:54;;;;;;;9.70;6.30;;;;;;;;;;104204;1283;544988;-68
2024/04/18 07:34:31;;;;;;;10.10;5.20;;;;;;;;;;103719;1291;545149;-68
2024/04/18 07:38:09;;;;;;;7.90;3.70;;;;;;;;;;103657;1289;545107;-68
2024/04/18 07:41:52;;;;;;;7.70;3.70;;;;;;;;;;103389;1293;545312;-68
2024/04/18 07:45:24;;;;;;;7.70;3.60;;;;;;;;;;104351;1282;545186;-67
2024/04/18 07:49:02;;;;;;;11.90;6.80;;;;;;;;;;103488;1295;545306;-68
2024/04/18 07:52:39;;;;;;;8.30;4.90;;;;;;;;;;103550;1290;545274;-68
2024/04/18 07:56:16;;;;;;;8.80;5.00;;;;;;;;;;103559;1290;545784;-70
2024/04/18 07:59:54;;;;;;;9.40;5.70;;;;;;;;;;103547;1292;546585;-69
2024/04/18 08:03:33;;;;;;;9.70;6.30;;;;;;;;;;103560;1290;545137;-70
2024/04/18 08:07:09;;;;;;;12.30;8.10;;;;;;;;;;103505;1289;546313;-69
2024/04/18 08:10:44;;;;;;;11.90;9.20;;;;;;;;;;103508;1291;545132;-70
2024/04/18 08:14:24;;;;;;;12.40;9.50;;;;;;;;;;103574;1292;545594;-69
2024/04/18 08:17:57;;;;;;;11.40;8.40;;;;;;;;;;103494;1297;545164;-68
2024/04/18 08:21:39;;;;;;;12.40;8.50;;;;;;;;;;103587;1291;545901;-69
2024/04/18 08:25:16;;;;;;;12.10;8.60;;;;;;;;;;103482;1291;544908;-69
2024/04/18 08:28:53;;;;;;;22.40;14.50;;;;;;;;;;103600;1296;545127;-69
2024/04/18 08:32:31;;;;;;;27.10;18.10;;;;;;;;;;103530;1289;545690;-68
2024/04/18 08:36:09;;;;;;;18.30;12.90;;;;;;;;;;103875;1288;545144;-68
2024/04/18 08:39:46;;;;;;;15.80;12.00;;;;;;;;;;103475;1291;545143;-69
2024/04/18 08:43:23;;;;;;;18.00;13.40;;;;;;;;;;103500;1289;544863;-68
2024/04/18 08:47:03;;;;;;;16.70;13.20;;;;;;;;;;103528;1292;545914;-68
2024/04/18 08:50:41;;;;;;;18.90;13.90;;;;;;;;;;103568;1295;545610;-69
2024/04/18 08:54:16;;;;;;;13.70;10.20;;;;;;;;;;103638;1289;545165;-69
2024/04/18 08:57:52;;;;;;;15.40;10.50;;;;;;;;;;103556;1291;546434;-68
2024/04/18 09:01:31;;;;;;;12.50;9.00;;;;;;;;;;103728;1288;545841;-70
2024/04/18 09:05:08;;;;;;;15.50;10.30;;;;;;;;;;103509;1291;546014;-68
2024/04/18 09:08:42;;;;;;;13.80;9.60;;;;;;;;;;103515;1295;545830;-70
2024/04/18 09:12:23;;;;;;;15.40;8.50;;;;;;;;;;103465;1295;545680;-69
2024/04/18 09:16:00;;;;;;;14.00;9.30;;;;;;;;;;103622;1292;545884;-70
2024/04/18 09:19:38;;;;;;;12.40;8.70;;;;;;;;;;103567;1291;545203;-69
2024/04/18 09:23:16;;;;;;;14.50;6.50;;;;;;;;;;103661;1290;545140;-69
2024/04/18 09:26:54;;;;;;;10.60;5.70;;;;;;;;;;103532;1292;545122;-70
2024/04/18 09:30:31;;;;;;;7.70;4.50;;;;;;;;;;103579;1294;545110;-68
2024/04/18 09:34:09;;;;;;;8.10;4.10;;;;;;;;;;103537;1289;544936;-68
2024/04/18 09:37:47;;;;;;;13.20;7.90;;;;;;;;;;103646;1291;545120;-68
2024/04/18 09:41:25;;;;;;;11.80;6.80;;;;;;;;;;103490;1291;546694;-69
2024/04/18 09:45:03;;;;;;;7.90;4.30;;;;;;;;;;103605;1291;545465;-69
2024/04/18 09:48:39;;;;;;;9.80;5.10;;;;;;;;;;103532;1290;546385;-67
2024/04/18 09:52:16;;;;;;;16.30;8.40;;;;;;;;;;103534;1295;546480;-69
2024/04/18 09:55:55;;;;;;;12.10;6.10;;;;;;;;;;103851;1288;545804;-69
2024/04/18 09:59:31;;;;;;;8.70;4.50;;;;;;;;;;103530;1292;545406;-70
2024/04/18 10:03:09;;;;;;;23.90;10.80;;;;;;;;;;103574;1291;545715;-71
2024/04/18 10:06:43;;;;;;;18.60;9.40;;;;;;;;;;103544;1291;545059;-69
2024/04/18 10:10:23;;;;;;;24.40;17.50;;;;;;;;;;103486;1292;545532;-69
2024/04/18 10:14:04;;;;;;;9.10;4.80;;;;;;;;;;103643;1296;544940;-69
2024/04/18 10:17:38;;;;;;;7.80;3.80;;;;;;;;;;103570;1289;545618;-69
2024/04/18 10:21:16;;;;;;;6.90;2.90;;;;;;;;;;103450;1292;544933;-70
2024/04/18 10:24:53;;;;;;;9.60;4.00;;;;;;;;;;103616;1289;545148;-70
2024/04/18 10:28:33;;;;;;;8.40;3.60;;;;;;;;;;103483;1291;545970;-69
2024/04/18 10:32:09;;;;;;;7.40;3.60;;;;;;;;;;103530;1292;544938;-68
2024/04/18 10:35:46;;;;;;;8.60;5.10;;;;;;;;;;103531;1301;544966;-71
2024/04/18 10:39:30;;;;;;;8.60;4.40;;;;;;;;;;103598;1289;545165;-69
2024/04/18 10:43:09;;;;;;;7.70;3.60;;;;;;;;;;104191;1285;545656;-69
2024/04/18 10:46:38;;;;;;;6.90;3.30;;;;;;;;;;103724;1289;544917;-69
2024/04/18 10:50:15;;;;;;;9.10;3.40;;;;;;;;;;104138;1288;545132;-68
2024/04/18 10:53:54;;;;;;;6.60;2.90;;;;;;;;;;103486;1291;545682;-70
2024/04/18 10:57:33;;;;;;;6.90;2.80;;;;;;;;;;103534;1294;545463;-69
2024/04/18 11:01:08;;;;;;;7.60;3.10;;;;;;;;;;103710;1295;545504;-68
2024/04/18 11:04:45;;;;;;;6.30;2.70;;;;;;;;;;103962;1288;546911;-71
2024/04/18 11:08:24;;;;;;;6.50;2.70;;;;;;;;;;103448;1291;545601;-68
2024/04/18 11:12:03;;;;;;;5.50;2.70;;;;;;;;;;103395;1291;547126;-69
2024/04/18 11:15:38;;;;;;;4.70;2.10;;;;;;;;;;103510;1290;546424;-69
2024/04/18 11:19:15;;;;;;;7.20;2.70;;;;;;;;;;103516;1303;546467;-70
2024/04/18 11:22:53;;;;;;;9.00;3.50;;;;;;;;;;103492;1295;545320;-68
2024/04/18 11:26:27;;;;;;;9.30;3.30;;;;;;;;;;103522;1292;545841;-70
2024/04/18 11:30:13;;;;;;;13.50;6.50;;;;;;;;;;103525;1291;544934;-69
2024/04/18 11:33:44;;;;;;;6.40;2.60;;;;;;;;;;103801;1287;545152;-68
2024/04/18 11:37:22;;;;;;;5.80;1.90;;;;;;;;;;103512;1291;544946;-70
2024/04/18 11:41:00;;;;;;;5.60;2.30;;;;;;;;;;103455;1291;545486;-70
2024/04/18 11:44:37;;;;;;;9.50;4.10;;;;;;;;;;103480;1295;544983;-70
2024/04/18 11:48:15;;;;;;;8.50;3.20;;;;;;;;;;103569;1291;546639;-70
2024/04/18 11:51:52;;;;;;;11.80;5.30;;;;;;;;;;103597;1289;544970;-69
2024/04/18 11:55:30;;;;;;;11.10;4.20;;;;;;;;;;104055;1285;545206;-69
2024/04/18 11:59:07;;;;;;;8.80;4.10;;;;;;;;;;103526;1290;545233;-69
2024/04/18 12:02:45;;;;;;;14.00;8.00;;;;;;;;;;104281;1286;545697;-68
2024/04/18 12:06:23;;;;;;;16.60;9.90;;;;;;;;;;103513;1295;545256;-68
2024/04/18 12:10:00;;;;;;;9.20;4.50;;;;;;;;;;103504;1292;547216;-70
2024/04/18 12:13:37;;;;;;;7.70;3.30;;;;;;;;;;103580;1290;546530;-69
2024/04/18 12:17:18;;;;;;;7.00;3.20;;;;;;;;;;103551;1290;545426;-68
2024/04/18 12:20:53;;;;;;;7.10;2.90;;;;;;;;;;103448;1291;546191;-68
2024/04/18 12:24:26;;;;;;;9.50;3.80;;;;;;;;;;103515;1293;545129;-69
2024/04/18 12:28:08;;;;;;;6.60;2.40;;;;;;;;;;103447;1290;546609;-70
2024/04/18 12:31:45;;;;;;;8.50;3.90;;;;;;;;;;103604;1292;545692;-69
2024/04/18 12:35:22;;;;;;;14.10;4.90;;;;;;;;;;103574;1291;544984;-69
2024/04/18 12:39:00;;;;;;;10.40;4.90;;;;;;;;;;103419;1291;545271;-69
2024/04/18 12:42:37;;;;;;;6.90;3.00;;;;;;;;;;103682;1289;545163;-70
2024/04/18 12:46:15;;;;;;;7.30;3.10;;;;;;;;;;103760;1288;545628;-70
2024/04/18 12:49:52;;;;;;;5.40;1.50;;;;;;;;;;103888;1288;545223;-69
2024/04/18 12:53:32;;;;;;;6.50;1.50;;;;;;;;;;103676;1295;545609;-69
2024/04/18 12:57:07;;;;;;;3.50;1.00;;;;;;;;;;103647;1291;545166;-68
2024/04/18 13:00:44;;;;;;;6.20;2.40;;;;;;;;;;103538;1291;544986;-71
2024/04/18 13:04:22;;;;;;;6.20;2.00;;;;;;;;;;103551;1294;546420;-70
2024/04/18 13:08:05;;;;;;;5.00;1.40;;;;;;;;;;103488;1295;545600;-73
2024/04/18 13:11:40;;;;;;;7.10;1.80;;;;;;;;;;103546;1291;545176;-70
2024/04/18 13:15:15;;;;;;;4.50;1.80;;;;;;;;;;103348;1292;545119;-70
2024/04/18 13:18:52;;;;;;;14.10;7.30;;;;;;;;;;103663;1292;545830;-72
2024/04/18 13:22:30;;;;;;;11.30;5.50;;;;;;;;;;103620;1291;545018;-71
2024/04/18 13:26:07;;;;;;;7.10;3.20;;;;;;;;;;103592;1291;545154;-74
2024/04/18 13:29:44;;;;;;;6.60;2.30;;;;;;;;;;104125;1286;546014;-69
2024/04/18 13:33:18;;;;;;;9.10;3.90;;;;;;;;;;103507;1291;545222;-68
2024/04/18 13:36:59;;;;;;;19.20;11.10;;;;;;;;;;103617;1291;545789;-73
2024/04/18 13:40:33;;;;;;;10.60;4.20;;;;;;;;;;103599;1290;545227;-72
2024/04/18 13:44:14;;;;;;;10.30;4.60;;;;;;;;;;103439;1291;547062;-68
2024/04/18 13:47:52;;;;;;;11.10;4.30;;;;;;;;;;103486;1294;547090;-72
2024/04/18 13:51:25;;;;;;;11.70;5.00;;;;;;;;;;103661;1295;545750;-70
2024/04/18 13:55:07;;;;;;;31.50;16.60;;;;;;;;;;103568;1291;545480;-68
2024/04/18 13:58:44;;;;;;;23.50;11.80;;;;;;;;;;103878;1288;546856;-71
2024/04/18 14:02:22;;;;;;;21.20;9.50;;;;;;;;;;103546;1295;546065;-69
2024/04/18 14:05:59;;;;;;;12.00;3.60;;;;;;;;;;103745;1291;544870;-70
2024/04/18 14:09:40;;;;;;;8.10;2.00;;;;;;;;;;103579;1291;545060;-73
2024/04/18 14:13:14;;;;;;;8.30;3.40;;;;;;;;;;103687;1295;545579;-70
2024/04/18 14:20:31;;;;;;;9.60;2.00;;;;;;;;;;103481;1291;545859;-68
2024/04/18 14:24:07;;;;;;;6.60;2.30;;;;;;;;;;103484;1292;546217;-69
2024/04/18 14:27:44;;;;;;;7.80;3.10;;;;;;;;;;103411;1291;545139;-69
2024/04/18 14:31:23;;;;;;;6.90;3.00;;;;;;;;;;103472;1295;546279;-69
2024/04/18 14:34:59;;;;;;;8.30;3.20;;;;;;;;;;103427;1291;545322;-69
2024/04/18 14:38:36;;;;;;;22.80;19.60;;;;;;;;;;103927;1286;544895;-69
2024/04/18 14:42:14;;;;;;;11.70;5.30;;;;;;;;;;103494;1292;545125;-67
2024/04/18 14:45:51;;;;;;;6.50;2.20;;;;;;;;;;103523;1289;545653;-67
2024/04/18 14:49:33;;;;;;;4.80;2.10;;;;;;;;;;103450;1291;545106;-67
2024/04/18 14:53:07;;;;;;;6.80;3.70;;;;;;;;;;103411;1295;545069;-69
2024/04/18 14:56:43;;;;;;;6.90;3.00;;;;;;;;;;103574;1289;545758;-69
2024/04/18 15:00:23;;;;;;;9.00;4.50;;;;;;;;;;103455;1289;546090;-68
2024/04/18 15:03:59;;;;;;;10.90;7.20;;;;;;;;;;103640;1288;545451;-67
2024/04/18 15:07:40;;;;;;;11.50;7.70;;;;;;;;;;103466;1291;545718;-68
2024/04/18 15:11:14;;;;;;;9.00;4.10;;;;;;;;;;103531;1292;544963;-69
2024/04/18 15:14:52;;;;;;;7.70;3.60;;;;;;;;;;103554;1304;545199;-69
2024/04/18 15:18:30;;;;;;;15.50;12.90;;;;;;;;;;103449;1301;545120;-69
2024/04/18 15:22:07;;;;;;;11.00;6.80;;;;;;;;;;104036;1286;545791;-68
2024/04/18 15:25:45;;;;;;;12.30;6.10;;;;;;;;;;104129;1288;544926;-69
2024/04/18 15:29:22;;;;;;;10.60;5.10;;;;;;;;;;103425;1290;545967;-68
2024/04/18 15:32:59;;;;;;;12.60;6.40;;;;;;;;;;103452;1291;545241;-68
2024/04/18 15:36:37;;;;;;;15.80;8.70;;;;;;;;;;103414;1292;545016;-68
2024/04/18 15:40:17;;;;;;;19.10;11.80;;;;;;;;;;103602;1290;544781;-69
2024/04/18 15:43:54;;;;;;;18.90;13.50;;;;;;;;;;103336;1291;545288;-69
2024/04/18 15:47:29;;;;;;;14.00;8.50;;;;;;;;;;103442;1297;545898;-69
2024/04/18 15:51:07;;;;;;;13.00;6.70;;;;;;;;;;103471;1291;545272;-69
2024/04/18 15:54:40;;;;;;;14.40;8.20;;;;;;;;;;103717;1288;545108;-69
2024/04/18 15:58:21;;;;;;;13.30;7.20;;;;;;;;;;103519;1292;545135;-69
2024/04/18 16:01:59;;;;;;;11.80;7.10;;;;;;;;;;103626;1291;546025;-69
2024/04/18 16:05:36;;;;;;;11.50;6.70;;;;;;;;;;103746;1290;545805;-69
2024/04/18 16:09:14;;;;;;;16.10;8.90;;;;;;;;;;103840;1290;545020;-69
2024/04/18 16:12:51;;;;;;;17.70;10.20;;;;;;;;;;103477;1291;548058;-69
2024/04/18 16:16:29;;;;;;;10.70;5.90;;;;;;;;;;103461;1291;545515;-70
2024/04/18 16:20:03;;;;;;;13.50;8.60;;;;;;;;;;103569;1296;545819;-70
2024/04/18 16:23:43;;;;;;;11.20;6.80;;;;;;;;;;103554;1292;545120;-70
2024/04/18 16:27:21;;;;;;;8.20;3.80;;;;;;;;;;103495;1292;545052;-69
2024/04/18 16:30:59;;;;;;;7.40;3.70;;;;;;;;;;103582;1291;545872;-70
2024/04/18 16:34:37;;;;;;;5.60;2.20;;;;;;;;;;103981;1288;546007;-70
2024/04/18 16:38:14;;;;;;;5.70;2.30;;;;;;;;;;103581;1295;545823;-69
2024/04/18 16:41:51;;;;;;;12.60;6.80;;;;;;;;;;103501;1295;545397;-70
2024/04/18 16:45:32;;;;;;;8.50;4.70;;;;;;;;;;103454;1291;545246;-70
2024/04/18 16:49:07;;;;;;;10.10;4.70;;;;;;;;;;103593;1291;545231;-69
2024/04/18 16:52:47;;;;;;;7.90;4.40;;;;;;;;;;103983;1285;545872;-68
2024/04/18 16:56:22;;;;;;;11.20;5.60;;;;;;;;;;103441;1292;545063;-70
2024/04/18 16:59:58;;;;;;;12.40;8.70;;;;;;;;;;103401;1298;544945;-69
2024/04/18 17:03:37;;;;;;;10.50;4.60;;;;;;;;;;103269;1294;545267;-68
2024/04/18 17:07:16;;;;;;;12.60;5.30;;;;;;;;;;103497;1292;545267;-69
2024/04/18 17:10:51;;;;;;;11.90;5.50;;;;;;;;;;103507;1291;545525;-68
2024/04/18 17:14:28;;;;;;;13.50;5.80;;;;;;;;;;103408;1291;545527;-69
2024/04/18 17:18:03;;;;;;;14.50;7.60;;;;;;;;;;103334;1291;545959;-70
2024/04/18 17:21:44;;;;;;;12.50;6.40;;;;;;;;;;103371;1305;545690;-70
2024/04/18 17:25:23;;;;;;;12.80;6.50;;;;;;;;;;103588;1291;545404;-69
2024/04/18 17:28:59;;;;;;;15.30;7.10;;;;;;;;;;103501;1291;546014;-69
2024/04/18 17:32:37;;;;;;;14.10;7.70;;;;;;;;;;103594;1292;545786;-69
2024/04/18 17:36:14;;;;;;;14.90;11.70;;;;;;;;;;103447;1291;544888;-70
2024/04/18 17:39:52;;;;;;;13.20;5.40;;;;;;;;;;103525;1291;544999;-69
2024/04/18 17:43:24;;;;;;;11.10;4.50;;;;;;;;;;103573;1292;544955;-71
2024/04/18 17:47:06;;;;;;;9.30;5.20;;;;;;;;;;103513;1290;545553;-70
2024/04/18 17:50:43;;;;;;;8.60;6.00;;;;;;;;;;103475;1293;545186;-69
2024/04/18 17:54:21;;;;;;;16.50;10.10;;;;;;;;;;103417;1291;545511;-70
2024/04/18 17:57:58;;;;;;;17.20;8.90;;;;;;;;;;103503;1292;544939;-70
2024/04/18 18:01:36;;;;;;;15.40;6.70;;;;;;;;;;103465;1305;544945;-69
2024/04/18 18:05:13;;;;;;;25.10;12.60;;;;;;;;;;103634;1291;545128;-70
2024/04/18 18:08:51;;;;;;;27.90;11.80;;;;;;;;;;103511;1291;544807;-70
2024/04/18 18:12:28;;;;;;;16.20;8.30;;;;;;;;;;103522;1291;545220;-69
2024/04/18 18:16:06;;;;;;;10.70;6.20;;;;;;;;;;103555;1290;545126;-69
2024/04/18 18:19:39;;;;;;;16.10;7.40;;;;;;;;;;103588;1291;545588;-70
2024/04/18 18:23:22;;;;;;;19.70;10.40;;;;;;;;;;103351;1295;544977;-70
2024/04/18 18:26:58;;;;;;;10.80;6.50;;;;;;;;;;103862;1286;545592;-69
2024/04/18 18:30:37;;;;;;;12.00;5.30;;;;;;;;;;103547;1288;545008;-69
2024/04/18 18:34:14;;;;;;;8.90;5.10;;;;;;;;;;103573;1289;545600;-69
2024/04/18 18:37:52;;;;;;;10.10;6.30;;;;;;;;;;103481;1292;545767;-70
2024/04/18 18:41:28;;;;;;;10.90;5.70;;;;;;;;;;103676;1291;547705;-68
2024/04/18 18:45:26;;;;;;;13.20;4.80;;;;;;;;;;103405;1295;545487;-70
2024/04/18 18:48:43;;;;;;;11.00;4.30;;;;;;;;;;103753;1286;545097;-69
2024/04/18 18:52:25;;;;;;;9.00;3.80;;;;;;;;;;103642;1292;545174;-69
2024/04/18 18:55:54;;;;;;;9.40;3.80;;;;;;;;;;103432;1291;545189;-69
2024/04/18 18:59:36;;;;;;;8.90;3.30;;;;;;;;;;103442;1292;546253;-69
2024/04/18 19:03:13;;;;;;;8.00;3.20;;;;;;;;;;103483;1291;547147;-69
2024/04/18 19:06:52;;;;;;;8.80;5.00;;;;;;;;;;103503;1295;545175;-70
2024/04/18 19:10:24;;;;;;;8.90;4.30;;;;;;;;;;104085;1285;545210;-69
2024/04/18 19:14:06;;;;;;;8.30;4.10;;;;;;;;;;103500;1291;545443;-70
2024/04/18 19:17:46;;;;;;;9.60;3.80;;;;;;;;;;103644;1291;544924;-69
2024/04/18 19:21:21;;;;;;;8.20;3.20;;;;;;;;;;103469;1297;545063;-68
2024/04/18 19:24:58;;;;;;;7.30;3.80;;;;;;;;;;103616;1293;546353;-69
2024/04/18 19:28:36;;;;;;;9.00;4.30;;;;;;;;;;103550;1294;545061;-69
2024/04/18 19:32:15;;;;;;;8.70;3.70;;;;;;;;;;103801;1288;545637;-70
2024/04/18 19:35:50;;;;;;;7.40;3.40;;;;;;;;;;103648;1289;544952;-70
2024/04/18 19:39:28;;;;;;;8.70;3.90;;;;;;;;;;103769;1287;544986;-69
2024/04/18 19:43:06;;;;;;;8.20;3.90;;;;;;;;;;103611;1296;545085;-69
2024/04/18 19:46:43;;;;;;;11.40;6.40;;;;;;;;;;103500;1292;545192;-70
2024/04/18 19:50:21;;;;;;;11.80;5.80;;;;;;;;;;103423;1291;544944;-69
2024/04/18 19:53:58;;;;;;;10.00;5.30;;;;;;;;;;103689;1292;545170;-69
2024/04/18 19:57:35;;;;;;;9.50;5.20;;;;;;;;;;103521;1291;545229;-68
2024/04/18 20:01:12;;;;;;;10.70;5.00;;;;;;;;;;103487;1291;545065;-70
2024/04/18 20:04:50;;;;;;;9.60;5.20;;;;;;;;;;103425;1291;545548;-70
2024/04/18 20:08:28;;;;;;;10.00;5.20;;;;;;;;;;103715;1290;545119;-69
2024/04/18 20:12:06;;;;;;;10.90;5.50;;;;;;;;;;103448;1304;544966;-69
2024/04/18 20:15:46;;;;;;;14.40;7.50;;;;;;;;;;103506;1295;544942;-69
2024/04/18 20:19:20;;;;;;;11.30;5.90;;;;;;;;;;103613;1290;545065;-68
2024/04/18 20:22:57;;;;;;;11.40;6.60;;;;;;;;;;103632;1289;545069;-69
2024/04/18 20:26:35;;;;;;;11.60;5.80;;;;;;;;;;103495;1292;545353;-69
2024/04/18 20:30:12;;;;;;;11.10;5.80;;;;;;;;;;103554;1294;546400;-67
2024/04/18 20:33:50;;;;;;;9.40;4.90;;;;;;;;;;103454;1295;546772;-68
2024/04/18 20:37:24;;;;;;;10.70;5.30;;;;;;;;;;103671;1292;545258;-69
2024/04/18 20:41:01;;;;;;;11.20;5.70;;;;;;;;;;103763;1289;544933;-69
2024/04/18 20:44:42;;;;;;;13.70;6.40;;;;;;;;;;103587;1291;544887;-69
2024/04/18 20:48:20;;;;;;;14.50;6.80;;;;;;;;;;103568;1290;545042;-69
2024/04/18 20:51:57;;;;;;;18.70;7.80;;;;;;;;;;103416;1291;544937;-69